createdAt,value
2022-11-24T00:02:31.405Z,98021.41
2022-11-24T00:05:38.439Z,98015.94
2022-11-24T00:08:42.253Z,98024.03
2022-11-24T00:11:44.561Z,98019.97
2022-11-24T00:14:47.133Z,98018.97
2022-11-24T00:17:49.356Z,98024.22
2022-11-24T00:20:54.621Z,98028.66
2022-11-24T00:23:57.377Z,98026.66
2022-11-24T00:26:59.586Z,98037.53
2022-11-24T00:30:01.865Z,98040.94
2022-11-24T00:33:04.213Z,98040.16
2022-11-24T00:36:06.569Z,98037.91
2022-11-24T00:39:13.233Z,98042.78
2022-11-24T00:42:15.585Z,98045.59
2022-11-24T00:45:17.798Z,98050.41
2022-11-24T00:48:20.124Z,98048.00
2022-11-24T00:51:26.466Z,98055.88
2022-11-24T00:54:29.210Z,98062.31
2022-11-24T00:57:31.491Z,98062.31
2022-11-24T01:00:33.695Z,98064.94
2022-11-24T01:03:36.807Z,98061.50
2022-11-24T01:06:39.106Z,98064.13
2022-11-24T01:09:43.241Z,98062.53
2022-11-24T01:12:45.446Z,98056.47
2022-11-24T01:15:47.696Z,98072.78
2022-11-24T01:18:50.701Z,98063.94
2022-11-24T01:21:53.439Z,98069.75
2022-11-24T01:24:55.684Z,98065.16
2022-11-24T01:27:57.882Z,98068.75
2022-11-24T01:31:01.653Z,98071.38
2022-11-24T01:34:04.066Z,98071.38
2022-11-24T01:37:06.356Z,98074.22
2022-11-24T01:40:09.463Z,98071.78
2022-11-24T01:43:21.700Z,98073.19
2022-11-24T01:46:36.058Z,98074.22
2022-11-24T01:49:54.660Z,98080.25
2022-11-24T01:52:57.303Z,98072.59
2022-11-24T01:55:59.815Z,98069.56
2022-11-24T01:59:05.003Z,98083.09
2022-11-24T02:02:08.017Z,98077.22
2022-11-24T02:05:19.367Z,98078.44
2022-11-24T02:08:30.587Z,98082.28
2022-11-24T02:11:39.639Z,98075.63
2022-11-24T02:14:43.196Z,98081.47
2022-11-24T02:17:45.493Z,98093.56
2022-11-24T02:20:47.781Z,98082.66
2022-11-24T02:24:09.562Z,98079.06
2022-11-24T02:27:12.002Z,98079.22
2022-11-24T02:30:14.415Z,98075.81
2022-11-24T02:33:17.302Z,98081.66
2022-11-24T02:36:19.500Z,98082.06
2022-11-24T02:39:21.705Z,98078.00
2022-11-24T02:42:26.323Z,98085.28
2022-11-24T02:45:29.374Z,98090.53
2022-11-24T02:48:31.591Z,98091.53
2022-11-24T02:51:34.525Z,98083.06
2022-11-24T02:54:37.158Z,98094.97
2022-11-24T02:57:39.575Z,98097.78
2022-11-24T03:00:41.979Z,98086.91
2022-11-24T03:03:44.183Z,98084.47
2022-11-24T03:06:46.373Z,98094.53
2022-11-24T03:09:48.857Z,98087.88
2022-11-24T03:12:51.165Z,98091.31
2022-11-24T03:15:53.600Z,98086.66
2022-11-24T03:18:56.168Z,98092.13
2022-11-24T03:21:58.419Z,98101.81
2022-11-24T03:25:01.049Z,98113.28
2022-11-24T03:28:03.507Z,98105.00
2022-11-24T03:31:07.367Z,98102.81
2022-11-24T03:34:09.707Z,98110.88
2022-11-24T03:37:12.061Z,98112.88
2022-11-24T03:40:14.728Z,98113.69
2022-11-24T03:43:17.089Z,98111.25
2022-11-24T03:46:19.436Z,98111.88
2022-11-24T03:49:22.068Z,98109.66
2022-11-24T03:52:26.596Z,98118.91
2022-11-24T03:55:28.904Z,98113.66
2022-11-24T03:58:31.732Z,98123.34
2022-11-24T04:01:34.059Z,98117.28
2022-11-24T04:04:36.395Z,98118.09
2022-11-24T04:07:38.764Z,98122.13
2022-11-24T04:10:41.261Z,98118.50
2022-11-24T04:13:47.522Z,98117.69
2022-11-24T04:16:49.865Z,98123.94
2022-11-24T04:19:52.116Z,98130.59
2022-11-24T04:22:54.304Z,98134.22
2022-11-24T04:25:56.556Z,98141.91
2022-11-24T04:28:58.747Z,98137.06
2022-11-24T04:32:00.989Z,98149.34
2022-11-24T04:35:04.576Z,98150.34
2022-11-24T04:38:06.940Z,98156.78
2022-11-24T04:41:09.415Z,98152.72
2022-11-24T04:44:11.608Z,98174.91
2022-11-24T04:47:25.247Z,98178.56
2022-11-24T04:50:27.580Z,98176.47
2022-11-24T04:53:29.793Z,98180.09
2022-11-24T04:56:31.996Z,98183.34
2022-11-24T04:59:34.291Z,98192.66
2022-11-24T05:02:36.518Z,98196.22
2022-11-24T05:05:38.774Z,98200.66
2022-11-24T05:08:40.997Z,98202.69
2022-11-24T05:11:44.008Z,98207.75
2022-11-24T05:14:46.269Z,98209.72
2022-11-24T05:17:48.553Z,98207.31
2022-11-24T05:20:50.810Z,98202.06
2022-11-24T05:23:53.115Z,98210.72
2022-11-24T05:26:55.385Z,98216.16
2022-11-24T05:29:57.664Z,98211.75
2022-11-24T05:33:05.761Z,98217.97
2022-11-24T05:36:08.568Z,98223.41
2022-11-24T05:39:10.821Z,98226.81
2022-11-24T05:42:31.696Z,98228.44
2022-11-24T05:45:34.083Z,98237.69
2022-11-24T05:49:06.958Z,98235.72
2022-11-24T05:52:05.625Z,98220.94
2022-11-24T05:55:09.203Z,98238.13
2022-11-24T05:58:11.480Z,98235.28
2022-11-24T06:01:13.768Z,98237.91
2022-11-24T06:04:16.265Z,98239.13
2022-11-24T06:07:18.887Z,98236.88
2022-11-24T06:10:24.105Z,98241.38
2022-11-24T06:13:26.417Z,98243.59
2022-11-24T06:16:29.142Z,98246.22
2022-11-24T06:19:31.749Z,98242.16
2022-11-24T06:22:34.029Z,98253.28
2022-11-24T06:25:36.420Z,98258.50
2022-11-24T06:28:38.799Z,98267.78
2022-11-24T06:31:41.156Z,98274.03
2022-11-24T06:34:43.658Z,98268.63
2022-11-24T06:37:45.971Z,98268.34
2022-11-24T06:40:48.270Z,98278.66
2022-11-24T06:43:50.626Z,98289.75
2022-11-24T06:50:40.919Z,98308.75
2022-11-24T06:53:43.211Z,98300.91
2022-11-24T06:56:45.516Z,98305.31
2022-11-24T06:59:48.116Z,98309.28
2022-11-24T07:02:50.541Z,98324.28
2022-11-24T07:05:58.208Z,98315.25
2022-11-24T07:09:00.510Z,98331.75
2022-11-24T07:12:02.842Z,98331.31
2022-11-24T07:15:09.500Z,98333.38
2022-11-24T07:18:15.171Z,98327.53
2022-11-24T07:21:18.193Z,98343.09
2022-11-24T07:24:20.813Z,98343.09
2022-11-24T07:27:23.569Z,98353.41
2022-11-24T07:30:28.361Z,98345.72
2022-11-24T07:36:51.169Z,98361.69
2022-11-24T07:39:53.385Z,98351.22
2022-11-24T07:42:55.710Z,98346.16
2022-11-24T07:46:01.885Z,98350.41
2022-11-24T07:49:04.181Z,98352.38
2022-11-24T07:52:08.586Z,98357.06
2022-11-24T07:55:11.074Z,98360.50
2022-11-24T07:58:13.360Z,98362.72
2022-11-24T08:01:17.841Z,98370.59
2022-11-24T08:04:20.214Z,98366.97
2022-11-24T08:07:22.663Z,98362.72
2022-11-24T08:10:24.979Z,98364.34
2022-11-24T08:13:27.252Z,98364.78
2022-11-24T08:16:29.571Z,98374.25
2022-11-24T08:19:32.443Z,98373.09
2022-11-24T08:22:34.809Z,98377.69
2022-11-24T08:25:37.180Z,98379.94
2022-11-24T08:28:39.572Z,98385.97
2022-11-24T08:31:42.239Z,98378.69
2022-11-24T08:34:44.570Z,98397.47
2022-11-24T08:37:47.421Z,98393.84
2022-11-24T08:40:49.703Z,98399.31
2022-11-24T08:43:52.042Z,98409.78
2022-11-24T08:46:54.737Z,98413.19
2022-11-24T08:49:57.056Z,98405.97
2022-11-24T08:52:59.365Z,98404.53
2022-11-24T08:56:02.920Z,98404.94
2022-11-24T08:59:05.521Z,98404.94
2022-11-24T09:02:12.537Z,98406.78
2022-11-24T09:05:43.686Z,98391.19
2022-11-24T09:08:38.604Z,98402.31
2022-11-24T09:11:40.988Z,98404.94
2022-11-24T09:14:43.326Z,98395.88
2022-11-24T09:17:48.833Z,98399.31
2022-11-24T09:20:51.248Z,98388.19
2022-11-24T09:23:54.596Z,98397.84
2022-11-24T09:26:57.139Z,98396.84
2022-11-24T09:29:59.511Z,98405.97
2022-11-24T09:33:01.771Z,98408.97
2022-11-24T09:36:04.830Z,98424.31
2022-11-24T09:39:07.340Z,98418.00
2022-11-24T09:42:37.501Z,98422.91
2022-11-24T09:46:04.901Z,98428.50
2022-11-24T09:49:16.760Z,98431.09
2022-11-24T09:52:36.494Z,98426.47
2022-11-24T09:55:56.367Z,98428.66
2022-11-24T09:59:06.575Z,98438.97
2022-11-24T10:02:13.366Z,98446.50
2022-11-24T10:05:15.790Z,98439.41
2022-11-24T10:08:35.416Z,98440.47
2022-11-24T10:11:56.694Z,98447.31
2022-11-24T10:15:22.607Z,98449.78
2022-11-24T10:18:43.646Z,98441.28
2022-11-24T10:21:57.589Z,98441.53
2022-11-24T10:25:09.298Z,98436.09
2022-11-24T10:28:15.085Z,98440.16
2022-11-24T10:31:44.693Z,98447.03
2022-11-24T10:34:51.509Z,98455.88
2022-11-24T10:38:11.823Z,98465.38
2022-11-24T10:42:09.500Z,98462.13
2022-11-24T10:45:16.424Z,98459.53
2022-11-24T10:49:27.675Z,98471.47
2022-11-24T10:52:34.978Z,98460.53
2022-11-24T10:55:58.133Z,98460.34
2022-11-24T10:59:22.521Z,98457.75
2022-11-24T11:02:37.330Z,98458.72
2022-11-24T11:11:18.687Z,98470.84
2022-11-24T11:15:23.697Z,98482.16
2022-11-24T11:18:32.855Z,98480.91
2022-11-24T11:21:38.015Z,98497.88
2022-11-24T11:38:50.799Z,98520.69
2022-11-24T11:43:00.789Z,98518.28
2022-11-24T11:46:17.021Z,98521.94
2022-11-24T11:50:20.798Z,98524.56
2022-11-24T11:53:29.022Z,98522.09
2022-11-24T11:56:36.179Z,98518.66
2022-11-24T11:59:51.879Z,98512.81
2022-11-24T12:03:15.413Z,98520.91
2022-11-24T12:07:14.673Z,98522.38
2022-11-24T12:20:48.492Z,98518.78
2022-11-24T12:24:42.008Z,98526.63
2022-11-24T12:27:50.559Z,98537.13
2022-11-24T12:31:01.927Z,98533.72
2022-11-24T12:34:26.504Z,98529.03
2022-11-24T12:37:47.500Z,98538.16
2022-11-24T12:41:43.960Z,98539.97
2022-11-24T12:45:13.168Z,98531.28
2022-11-24T12:48:43.417Z,98540.94
2022-11-24T12:51:53.584Z,98527.41
2022-11-24T12:54:56.928Z,98532.47
2022-11-24T12:58:00.322Z,98537.13
2022-11-24T13:01:18.744Z,98540.78
2022-11-24T13:04:35.828Z,98540.41
2022-11-24T13:07:47.590Z,98537.94
2022-11-24T13:11:22.410Z,98536.97
2022-11-24T13:14:34.164Z,98521.59
2022-11-24T13:17:59.493Z,98520.22
2022-11-24T13:21:31.259Z,98526.91
2022-11-24T13:24:37.020Z,98549.31
2022-11-24T13:27:42.202Z,98543.25
2022-11-24T13:30:55.273Z,98547.69
2022-11-24T13:33:57.857Z,98555.75
2022-11-24T13:37:26.723Z,98552.13
2022-11-24T13:40:22.756Z,98553.94
2022-11-24T13:43:25.502Z,98553.94
2022-11-24T13:47:00.205Z,98553.94
2022-11-24T13:50:13.840Z,98551.50
2022-11-24T13:53:27.775Z,98557.38
2022-11-24T13:56:31.134Z,98560.19
2022-11-24T13:59:35.388Z,98557.75
2022-11-24T14:02:37.744Z,98561.88
2022-11-24T14:05:47.096Z,98572.53
2022-11-24T14:08:49.655Z,98573.59
2022-11-24T14:12:20.905Z,98579.66
2022-11-24T14:15:25.975Z,98583.09
2022-11-24T14:18:31.813Z,98593.78
2022-11-24T14:21:38.267Z,98600.84
2022-11-24T14:24:43.751Z,98595.59
2022-11-24T14:27:46.463Z,98596.41
2022-11-24T14:30:48.956Z,98593.78
2022-11-24T14:34:23.589Z,98592.97
2022-11-24T14:37:26.259Z,98594.78
2022-11-24T14:40:49.961Z,98608.72
2022-11-24T14:44:19.168Z,98601.84
2022-11-24T14:47:30.825Z,98609.28
2022-11-24T14:50:33.937Z,98607.03
2022-11-24T14:53:36.807Z,98609.28
2022-11-24T14:56:40.181Z,98621.41
2022-11-24T14:59:42.419Z,98627.91
2022-11-24T15:02:52.057Z,98638.41
2022-11-24T15:06:00.744Z,98635.50
2022-11-24T15:09:06.251Z,98637.75
2022-11-24T15:12:19.471Z,98638.63
2022-11-24T15:15:30.598Z,98636.22
2022-11-24T15:18:55.180Z,98648.31
2022-11-24T15:21:57.495Z,98649.50
2022-11-24T15:25:04.284Z,98642.38
2022-11-24T15:28:08.417Z,98645.63
2022-11-24T15:31:12.962Z,98648.44
2022-11-24T15:34:15.512Z,98640.31
2022-11-24T15:37:17.778Z,98652.25
2022-11-24T15:40:20.144Z,98654.25
2022-11-24T15:43:39.363Z,98666.19
2022-11-24T15:46:41.739Z,98663.75
2022-11-24T15:49:44.076Z,98657.44
2022-11-24T15:52:47.591Z,98660.88
2022-11-24T15:55:50.513Z,98669.38
2022-11-24T15:58:53.179Z,98664.69
2022-11-24T16:01:55.542Z,98678.78
2022-11-24T16:04:57.880Z,98667.31
2022-11-24T16:08:00.257Z,98669.50
2022-11-24T16:11:02.662Z,98689.47
2022-11-24T16:14:04.971Z,98670.31
2022-11-24T16:17:07.499Z,98677.72
2022-11-24T16:20:10.294Z,98677.13
2022-11-24T16:23:12.636Z,98680.72
2022-11-24T16:26:14.919Z,98678.28
2022-11-24T16:29:17.211Z,98680.13
2022-11-24T16:32:19.453Z,98685.16
2022-11-24T16:35:21.801Z,98688.59
2022-11-24T16:38:24.362Z,98692.03
2022-11-24T16:41:26.671Z,98691.59
2022-11-24T16:44:28.913Z,98700.28
2022-11-24T16:47:31.224Z,98701.28
2022-11-24T16:50:33.529Z,98696.41
2022-11-24T16:53:36.664Z,98706.88
2022-11-24T16:56:38.935Z,98707.44
2022-11-24T16:59:43.322Z,98707.25
2022-11-24T17:02:46.566Z,98707.63
2022-11-24T17:06:00.341Z,98712.50
2022-11-24T17:09:02.681Z,98715.13
2022-11-24T17:12:05.417Z,98716.13
2022-11-24T17:15:31.817Z,98712.88
2022-11-24T17:18:30.572Z,98735.50
2022-11-24T17:21:33.329Z,98732.59
2022-11-24T17:24:35.893Z,98736.66
2022-11-24T17:27:38.455Z,98740.28
2022-11-24T17:30:40.732Z,98738.19
2022-11-24T17:33:43.204Z,98746.88
2022-11-24T17:36:46.257Z,98752.13
2022-11-24T17:40:05.996Z,98750.69
2022-11-24T17:43:10.805Z,98758.19
2022-11-24T17:46:13.080Z,98762.63
2022-11-24T17:49:15.409Z,98765.16
2022-11-24T17:52:18.542Z,98777.09
2022-11-24T17:55:21.154Z,98779.53
2022-11-24T17:58:23.463Z,98776.47
2022-11-24T18:01:28.702Z,98793.63
2022-11-24T18:04:31.144Z,98789.22
2022-11-24T18:07:36.080Z,98795.34
2022-11-24T18:10:38.832Z,98814.31
2022-11-24T18:13:58.480Z,98809.91
2022-11-24T18:17:02.836Z,98813.53
2022-11-24T18:20:06.008Z,98818.78
2022-11-24T18:23:08.428Z,98819.94
2022-11-24T18:26:14.917Z,98824.34
2022-11-24T18:29:17.273Z,98829.25
2022-11-24T18:32:19.567Z,98836.47
2022-11-24T18:35:21.833Z,98838.47
2022-11-24T18:38:24.629Z,98822.00
2022-11-24T18:41:27.277Z,98843.06
2022-11-24T18:44:29.624Z,98837.81
2022-11-24T18:47:31.920Z,98846.34
2022-11-24T18:50:34.387Z,98839.19
2022-11-24T18:53:36.686Z,98843.25
2022-11-24T18:56:39.007Z,98841.47
2022-11-24T18:59:41.513Z,98852.31
2022-11-24T19:02:51.195Z,98851.84
2022-11-24T19:05:53.486Z,98858.34
2022-11-24T19:08:56.022Z,98857.56
2022-11-24T19:11:58.405Z,98867.22
2022-11-24T19:15:00.696Z,98855.81
2022-11-24T19:18:02.987Z,98862.50
2022-11-24T19:21:05.609Z,98871.81
2022-11-24T19:24:13.343Z,98878.22
2022-11-24T19:27:16.807Z,98875.97
2022-11-24T19:30:19.545Z,98880.69
2022-11-24T19:33:23.709Z,98888.53
2022-11-24T19:36:26.376Z,98885.09
2022-11-24T19:39:29.955Z,98889.53
2022-11-24T19:42:32.335Z,98881.19
2022-11-24T19:45:34.694Z,98889.69
2022-11-24T19:48:39.518Z,98891.41
2022-11-24T19:51:41.844Z,98904.16
2022-11-24T19:54:44.282Z,98905.78
2022-11-24T19:57:46.654Z,98910.03
2022-11-24T20:00:48.981Z,98905.97
2022-11-24T20:04:03.431Z,98910.41
2022-11-24T20:07:05.795Z,98911.56
2022-11-24T20:10:08.627Z,98919.06
2022-11-24T20:13:11.032Z,98918.63
2022-11-24T20:16:16.083Z,98920.41
2022-11-24T20:19:18.895Z,98925.66
2022-11-24T20:22:21.149Z,98935.50
2022-11-24T20:25:23.424Z,98945.81
2022-11-24T20:28:25.747Z,98942.19
2022-11-24T20:31:52.706Z,98950.41
2022-11-24T20:34:54.916Z,98957.09
2022-11-24T20:37:57.789Z,98972.19
2022-11-24T20:41:09.223Z,98961.88
2022-11-24T20:44:17.425Z,98974.00
2022-11-24T20:47:19.678Z,98963.88
2022-11-24T20:50:21.925Z,98965.00
2022-11-24T20:53:24.253Z,98962.06
2022-11-24T20:56:32.464Z,98971.03
2022-11-24T20:59:34.876Z,98977.81
2022-11-24T21:02:37.249Z,98973.66
2022-11-24T21:05:39.486Z,98971.72
2022-11-24T21:08:42.445Z,98981.53
2022-11-24T21:11:45.137Z,98980.41
2022-11-24T21:14:47.428Z,98976.16
2022-11-24T21:17:49.704Z,98991.03
2022-11-24T21:20:52.038Z,98986.78
2022-11-24T21:23:54.330Z,98983.34
2022-11-24T21:26:56.593Z,98992.00
2022-11-24T21:29:58.893Z,98991.22
2022-11-24T21:33:05.608Z,98993.53
2022-11-24T21:36:08.386Z,98994.81
2022-11-24T21:39:13.464Z,98994.00
2022-11-24T21:42:15.915Z,99003.66
2022-11-24T21:45:18.245Z,99007.09
2022-11-24T21:48:21.014Z,98988.47
2022-11-24T21:51:23.341Z,99001.03
2022-11-24T21:54:25.761Z,99002.84
2022-11-24T21:57:28.456Z,98998.78
2022-11-24T22:00:30.725Z,99006.47
2022-11-24T22:03:33.070Z,98998.78
2022-11-24T22:06:35.426Z,98998.13
2022-11-24T22:09:37.757Z,99017.75
2022-11-24T22:12:39.995Z,99011.72
2022-11-24T22:15:42.540Z,99018.91
2022-11-24T22:18:45.754Z,99026.78
2022-11-24T22:21:48.312Z,99035.81
2022-11-24T22:24:50.812Z,99032.69
2022-11-24T22:27:53.155Z,99028.41
2022-11-24T22:30:55.447Z,99040.06
2022-11-24T22:33:58.947Z,99040.06
2022-11-24T22:37:01.208Z,99046.28
2022-11-24T22:40:03.997Z,99039.25
2022-11-24T22:43:06.250Z,99049.88
2022-11-24T22:46:17.636Z,99053.16
2022-11-24T22:49:19.902Z,99052.03
2022-11-24T22:52:22.227Z,99064.00
2022-11-24T22:55:24.581Z,99059.25
2022-11-24T22:58:26.906Z,99067.25
2022-11-24T23:01:30.902Z,99063.00
2022-11-24T23:04:33.432Z,99067.59
2022-11-24T23:07:36.217Z,99066.78
2022-11-24T23:10:38.642Z,99068.41
2022-11-24T23:13:41.540Z,99062.22
2022-11-24T23:16:44.002Z,99065.47
2022-11-24T23:19:46.434Z,99074.81
2022-11-24T23:22:48.703Z,99072.50
2022-11-24T23:25:51.026Z,99070.56
2022-11-24T23:28:53.397Z,99074.47
2022-11-24T23:31:55.829Z,99088.72
2022-11-24T23:34:58.153Z,99089.72
2022-11-24T23:38:07.337Z,99091.88
2022-11-24T23:41:19.125Z,99094.13
2022-11-24T23:44:22.194Z,99099.38
2022-11-24T23:47:24.522Z,99090.41
2022-11-24T23:50:26.788Z,99087.59
2022-11-24T23:53:31.700Z,99091.69
2022-11-24T23:56:34.104Z,99090.06
2022-11-24T23:59:36.363Z,99089.88
